Time;durP1;ratioP1;P1;durP2;ratioP2;P2;SDS_P1;SDS_P2;PMS_P1;PMS_P2;Temp;Humidity;BMP_temperature;BMP_pressure;BME280_temperature;BME280_humidity;BME280_pressure;Samples;Min_cycle;Max_cycle;Signal;HPM_P1;HPM_P2
2022/06/24 00:01:36;;;;;;;2.55;2.35;;;23.20;81.70;;;;;;5039796;28;20292;-74
2022/06/24 00:04:02;;;;;;;2.92;2.58;;;23.30;81.60;;;;;;5039591;28;20242;-73
2022/06/24 00:06:45;;;;;;;6.03;2.10;;;23.20;81.90;;;;;;5041103;28;20212;-74
2022/06/24 00:09:12;;;;;;;2.60;2.22;;;23.20;82.10;;;;;;5040915;28;20193;-73
2022/06/24 00:11:37;;;;;;;2.55;2.30;;;23.10;83.00;;;;;;5041225;28;20223;-73
2022/06/24 00:14:12;;;;;;;2.90;2.30;;;23.20;83.60;;;;;;5041211;28;20240;-73
2022/06/24 00:17:08;;;;;;;2.70;2.50;;;23.00;84.50;;;;;;5042034;28;20188;-72
2022/06/24 00:19:54;;;;;;;2.30;2.10;;;22.90;84.70;;;;;;5037795;28;20196;-74
2022/06/24 00:22:20;;;;;;;2.33;2.13;;;22.90;85.70;;;;;;5038025;28;20213;-74
2022/06/24 00:24:45;;;;;;;3.08;2.47;;;22.70;85.90;;;;;;5037563;28;20189;-73
2022/06/24 00:27:25;;;;;;;3.67;2.33;;;22.70;86.80;;;;;;5037441;28;20215;-73
2022/06/24 00:29:54;;;;;;;2.58;2.38;;;22.80;87.40;;;;;;5036931;28;20226;-74
2022/06/24 00:32:33;;;;;;;2.85;2.05;;;22.90;88.00;;;;;;5036518;28;20185;-74
2022/06/24 00:35:11;;;;;;;4.88;2.13;;;22.60;89.10;;;;;;5036722;28;20189;-74
2022/06/24 00:37:39;;;;;;;2.35;1.98;;;22.70;89.50;;;;;;5036648;28;20632;-72
2022/06/24 00:40:10;;;;;;;2.50;2.22;;;22.50;89.10;;;;;;5036083;28;20246;-73
2022/06/24 00:42:46;;;;;;;2.40;2.20;;;22.40;90.60;;;;;;5035680;28;20703;-73
2022/06/24 00:45:38;;;;;;;2.60;2.40;;;22.70;90.50;;;;;;5035629;28;20570;-75
2022/06/24 00:48:15;;;;;;;3.45;2.22;;;22.70;90.20;;;;;;5036089;28;20197;-73
2022/06/24 00:50:45;;;;;;;3.83;2.45;;;22.80;89.50;;;;;;5017935;28;20235;-74
2022/06/24 00:53:12;;;;;;;2.30;2.10;;;22.60;89.80;;;;;;5036142;28;20199;-75
2022/06/24 00:55:40;;;;;;;2.00;1.90;;;22.70;90.30;;;;;;5036241;28;20256;-73
2022/06/24 00:58:15;;;;;;;2.50;2.03;;;22.50;90.90;;;;;;5035606;28;20649;-74
2022/06/24 01:00:49;;;;;;;2.40;2.20;;;22.70;90.50;;;;;;5035532;28;20246;-75
2022/06/24 01:03:15;;;;;;;2.35;2.15;;;22.60;90.60;;;;;;5035752;28;20193;-74
2022/06/24 01:05:42;;;;;;;2.75;2.15;;;22.50;90.90;;;;;;5035567;28;20216;-75
2022/06/24 01:08:10;;;;;;;4.57;4.18;;;22.60;90.80;;;;;;5035431;28;20199;-75
2022/06/24 01:10:37;;;;;;;2.42;2.10;;;22.50;91.10;;;;;;5035543;28;20208;-74
2022/06/24 01:13:06;;;;;;;4.10;2.50;;;22.60;91.20;;;;;;5034920;28;20643;-74
2022/06/24 01:15:32;;;;;;;2.70;2.28;;;22.70;91.10;;;;;;5035689;28;20224;-73
2022/06/24 01:17:59;;;;;;;2.20;2.00;;;22.60;90.80;;;;;;5035840;28;20208;-75
2022/06/24 01:20:24;;;;;;;3.92;2.20;;;22.60;91.10;;;;;;5035464;28;20591;-73
2022/06/24 01:22:50;;;;;;;2.80;2.40;;;22.60;91.00;;;;;;5036353;28;20180;-75
2022/06/24 01:25:15;;;;;;;2.40;2.20;;;22.50;90.90;;;;;;5040516;28;20220;-75
2022/06/24 01:27:41;;;;;;;2.53;2.10;;;22.70;91.20;;;;;;5044792;28;20278;-74
2022/06/24 01:30:09;;;;;;;2.35;2.15;;;22.60;91.30;;;;;;5043917;28;20192;-74
2022/06/24 01:32:35;;;;;;;2.95;2.30;;;22.50;91.10;;;;;;5045578;28;20211;-74
2022/06/24 01:35:00;;;;;;;3.65;2.40;;;22.50;91.20;;;;;;5045432;28;20188;-75
2022/06/24 01:37:26;;;;;;;2.38;2.08;;;22.60;91.40;;;;;;5038809;28;20189;-75
2022/06/24 01:39:51;;;;;;;2.45;2.25;;;22.50;91.00;;;;;;5034906;28;20649;-74
2022/06/24 01:42:17;;;;;;;3.28;2.20;;;22.40;91.10;;;;;;5034914;28;20193;-73
2022/06/24 01:44:42;;;;;;;2.45;2.25;;;22.40;91.10;;;;;;5034417;28;20192;-74
2022/06/24 01:47:08;;;;;;;3.03;2.00;;;22.60;91.50;;;;;;5034633;28;20192;-76
2022/06/24 01:49:34;;;;;;;3.42;2.30;;;22.50;91.50;;;;;;5034349;28;20192;-76
2022/06/24 01:51:59;;;;;;;3.33;2.25;;;22.30;91.60;;;;;;5034630;28;20450;-75
2022/06/24 01:54:26;;;;;;;2.60;2.05;;;22.30;91.60;;;;;;5034704;28;20195;-74
2022/06/24 01:56:53;;;;;;;2.28;2.08;;;22.40;91.40;;;;;;5034566;28;20245;-75
2022/06/24 01:59:19;;;;;;;2.58;2.38;;;22.50;91.40;;;;;;5034463;28;20239;-74
2022/06/24 02:01:45;;;;;;;2.47;2.22;;;22.40;91.60;;;;;;5034392;28;20523;-73
2022/06/24 02:04:12;;;;;;;3.65;2.20;;;22.40;91.80;;;;;;5034513;28;20184;-73
2022/06/24 02:06:37;;;;;;;4.50;2.13;;;22.40;91.60;;;;;;5034823;28;20250;-74
2022/06/24 02:09:04;;;;;;;3.13;2.10;;;22.40;91.90;;;;;;5033841;28;20688;-75
2022/06/24 02:14:14;;;;;;;2.30;2.10;;;22.20;91.60;;;;;;5033689;28;20206;-73
2022/06/24 02:16:40;;;;;;;3.22;2.08;;;22.30;91.40;;;;;;5033957;28;20711;-74
2022/06/24 02:19:07;;;;;;;2.60;2.35;;;22.20;92.20;;;;;;5034808;28;20287;-74
2022/06/24 02:21:33;;;;;;;3.08;2.45;;;22.20;92.20;;;;;;5034410;28;20223;-74
2022/06/24 02:23:59;;;;;;;3.00;2.30;;;22.30;91.90;;;;;;5034445;28;20549;-75
2022/06/24 02:26:25;;;;;;;2.72;2.30;;;22.20;92.00;;;;;;5033601;28;20350;-73
2022/06/24 02:28:51;;;;;;;3.70;2.20;;;22.20;92.30;;;;;;5033589;28;20580;-76
2022/06/24 02:31:18;;;;;;;3.05;2.35;;;22.20;92.40;;;;;;5033817;28;20184;-74
2022/06/24 02:33:43;;;;;;;2.40;2.13;;;22.30;92.30;;;;;;5034075;28;20185;-74
2022/06/24 02:36:09;;;;;;;3.00;2.15;;;22.00;92.20;;;;;;5034259;28;20616;-74
2022/06/24 02:38:36;;;;;;;2.53;2.33;;;22.10;92.70;;;;;;5034057;28;20518;-74
2022/06/24 02:41:02;;;;;;;3.53;2.42;;;22.00;93.10;;;;;;5033919;28;20212;-74
2022/06/24 02:43:30;;;;;;;4.40;2.33;;;21.90;92.80;;;;;;5033751;28;20211;-74
2022/06/24 02:46:00;;;;;;;2.58;2.35;;;21.90;93.20;;;;;;5033365;28;20683;-74
2022/06/24 02:48:27;;;;;;;2.30;2.10;;;21.80;93.20;;;;;;5017101;28;20207;-74
2022/06/24 02:50:56;;;;;;;5.85;2.70;;;21.80;93.60;;;;;;5036094;28;20218;-74
2022/06/24 02:53:23;;;;;;;4.57;2.35;;;21.90;93.60;;;;;;5035853;28;20597;-73
2022/06/24 02:55:51;;;;;;;2.50;2.30;;;21.90;93.70;;;;;;5035368;28;20235;-75
2022/06/24 02:58:17;;;;;;;2.40;2.20;;;21.80;93.60;;;;;;5035676;28;20194;-75
2022/06/24 03:00:43;;;;;;;2.80;2.20;;;22.00;93.40;;;;;;5039258;28;20246;-73
2022/06/24 03:03:10;;;;;;;4.18;2.00;;;22.00;92.90;;;;;;5039066;28;20207;-75
2022/06/24 03:05:35;;;;;;;2.58;2.33;;;22.00;93.50;;;;;;5040854;28;20308;-74
2022/06/24 03:08:01;;;;;;;2.75;2.55;;;22.00;93.40;;;;;;5041276;28;20216;-75
2022/06/24 03:10:26;;;;;;;4.35;2.70;;;21.80;93.70;;;;;;5043810;28;20173;-74
2022/06/24 03:12:52;;;;;;;2.40;2.20;;;22.10;93.80;;;;;;5041762;28;20275;-74
2022/06/24 03:15:18;;;;;;;2.90;2.38;;;22.10;93.30;;;;;;5040102;28;20184;-74
2022/06/24 03:17:43;;;;;;;3.45;2.40;;;22.00;93.80;;;;;;5043331;28;20498;-73
2022/06/24 03:20:09;;;;;;;2.67;2.30;;;22.00;93.70;;;;;;5045711;28;20177;-74
2022/06/24 03:22:36;;;;;;;3.38;2.75;;;21.90;94.10;;;;;;5044773;28;20566;-75
2022/06/24 03:25:04;;;;;;;3.40;2.45;;;22.00;94.10;;;;;;5046528;28;20231;-73
2022/06/24 03:27:29;;;;;;;2.95;2.75;;;22.00;94.10;;;;;;5042675;28;20303;-74
2022/06/24 03:29:55;;;;;;;2.35;2.08;;;22.20;93.60;;;;;;5037302;28;20177;-72
2022/06/24 03:32:20;;;;;;;5.30;2.38;;;22.10;93.30;;;;;;5037305;28;20255;-74
2022/06/24 03:34:46;;;;;;;3.95;2.30;;;22.00;94.00;;;;;;5036817;28;20216;-73
2022/06/24 03:37:12;;;;;;;7.15;2.35;;;22.20;94.10;;;;;;5036815;28;20233;-73
2022/06/24 03:39:37;;;;;;;2.47;2.28;;;22.20;94.00;;;;;;5036454;28;20208;-74
2022/06/24 03:42:04;;;;;;;2.40;2.20;;;22.10;94.50;;;;;;5036803;28;20620;-74
2022/06/24 03:44:29;;;;;;;4.93;2.40;;;22.00;95.50;;;;;;5037195;28;20197;-74
2022/06/24 03:46:55;;;;;;;2.90;2.10;;;22.10;94.30;;;;;;5036354;28;20219;-74
2022/06/24 03:49:21;;;;;;;4.65;2.25;;;22.00;95.00;;;;;;5036373;28;20195;-75
2022/06/24 03:51:46;;;;;;;2.85;2.30;;;21.90;95.00;;;;;;5036498;28;20179;-74
2022/06/24 03:54:12;;;;;;;3.90;2.40;;;22.20;94.40;;;;;;5036482;28;20192;-74
2022/06/24 03:56:38;;;;;;;5.65;2.17;;;22.00;95.00;;;;;;5035951;28;20644;-74
2022/06/24 03:59:04;;;;;;;3.38;2.40;;;22.20;94.70;;;;;;5036476;28;20267;-74
2022/06/24 04:01:30;;;;;;;3.13;2.55;;;22.00;94.80;;;;;;5036491;28;20216;-74
2022/06/24 04:03:55;;;;;;;2.58;2.35;;;22.00;94.80;;;;;;5036462;28;20214;-74
2022/06/24 04:06:21;;;;;;;3.33;2.13;;;21.90;94.90;;;;;;5038456;28;20213;-75
2022/06/24 04:08:47;;;;;;;5.65;2.80;;;21.90;94.80;;;;;;5037591;28;20203;-75
2022/06/24 04:11:15;;;;;;;2.72;2.50;;;21.90;95.20;;;;;;5035942;28;20181;-75
2022/06/24 04:13:41;;;;;;;2.80;2.38;;;22.00;94.90;;;;;;5035735;28;20536;-75
2022/06/24 04:16:07;;;;;;;2.88;2.60;;;21.80;95.00;;;;;;5035928;28;20177;-74
2022/06/24 04:18:32;;;;;;;2.85;2.40;;;21.80;95.20;;;;;;5018216;28;20184;-74
2022/06/24 04:20:58;;;;;;;4.22;2.50;;;21.70;95.30;;;;;;5035306;28;20636;-73
2022/06/24 04:23:24;;;;;;;3.17;2.38;;;21.80;95.30;;;;;;5035673;28;20267;-75
2022/06/24 04:25:50;;;;;;;5.38;2.53;;;22.00;94.90;;;;;;5035979;28;20216;-73
2022/06/24 04:28:16;;;;;;;3.78;2.50;;;22.00;95.00;;;;;;5035820;28;20294;-74
2022/06/24 04:30:42;;;;;;;3.45;2.58;;;21.90;95.10;;;;;;5036076;28;20188;-72
2022/06/24 04:33:08;;;;;;;3.55;2.55;;;21.70;95.00;;;;;;5036243;28;20219;-74
2022/06/24 04:35:34;;;;;;;4.13;2.58;;;22.00;95.30;;;;;;5035197;28;20177;-74
2022/06/24 04:37:59;;;;;;;3.30;2.67;;;21.90;95.30;;;;;;5034793;28;20173;-74
2022/06/24 04:40:25;;;;;;;2.30;2.10;;;21.90;94.90;;;;;;5034971;28;20185;-75
2022/06/24 04:42:50;;;;;;;3.05;2.65;;;21.80;95.50;;;;;;5035536;28;20183;-73
2022/06/24 04:45:16;;;;;;;3.15;2.80;;;21.80;95.30;;;;;;5035075;28;20290;-73
2022/06/24 04:47:42;;;;;;;2.90;2.63;;;21.80;95.20;;;;;;5035125;28;20189;-73
2022/06/24 04:50:08;;;;;;;4.45;2.53;;;21.80;95.60;;;;;;5034992;28;20675;-75
2022/06/24 04:52:34;;;;;;;4.57;2.63;;;21.90;95.60;;;;;;5034728;28;20181;-73
2022/06/24 04:55:00;;;;;;;4.40;2.75;;;22.00;95.10;;;;;;5035284;28;20227;-74
2022/06/24 04:57:26;;;;;;;4.55;3.00;;;22.00;94.80;;;;;;5034827;28;20181;-71
2022/06/24 04:59:51;;;;;;;5.00;3.05;;;22.00;94.80;;;;;;5034949;28;20181;-74
2022/06/24 05:02:17;;;;;;;4.93;3.67;;;22.00;94.70;;;;;;5035754;28;20192;-73
2022/06/24 05:04:43;;;;;;;5.03;2.70;;;22.00;94.90;;;;;;5034825;28;20181;-75
2022/06/24 05:07:08;;;;;;;6.30;2.38;;;22.00;95.00;;;;;;5036365;28;20191;-74
2022/06/24 05:09:34;;;;;;;4.38;2.83;;;22.20;94.50;;;;;;5037161;28;20513;-73
2022/06/24 05:12:00;;;;;;;2.83;2.55;;;22.20;94.30;;;;;;5037153;28;20188;-73
2022/06/24 05:14:26;;;;;;;4.32;2.90;;;22.10;93.90;;;;;;5037026;28;20187;-76
2022/06/24 05:16:51;;;;;;;4.43;2.83;;;22.30;94.30;;;;;;5039341;28;20184;-73
2022/06/24 05:19:17;;;;;;;4.30;3.33;;;22.40;93.60;;;;;;5038552;28;20184;-74
2022/06/24 05:21:42;;;;;;;4.38;2.72;;;22.60;93.20;;;;;;5037747;28;20188;-72
2022/06/24 05:24:08;;;;;;;2.83;2.63;;;22.50;93.30;;;;;;5037061;28;20487;-72
2022/06/24 05:26:34;;;;;;;6.50;3.13;;;22.60;93.00;;;;;;5036783;28;20306;-73
2022/06/24 05:28:59;;;;;;;3.20;2.70;;;22.70;93.20;;;;;;5037314;28;20270;-73
2022/06/24 05:31:25;;;;;;;2.80;2.60;;;22.60;92.80;;;;;;5035655;28;20191;-74
2022/06/24 05:33:50;;;;;;;6.95;3.08;;;22.80;92.80;;;;;;5036183;28;20258;-73
2022/06/24 05:36:16;;;;;;;4.18;2.97;;;22.70;93.20;;;;;;5035587;28;20187;-72
2022/06/24 05:38:42;;;;;;;3.35;2.90;;;22.70;93.30;;;;;;5036295;28;20558;-74
2022/06/24 05:41:08;;;;;;;6.10;2.90;;;22.60;92.40;;;;;;5035425;28;20647;-74
2022/06/24 05:43:34;;;;;;;6.88;3.10;;;23.00;93.00;;;;;;5036259;28;20203;-74
2022/06/24 05:45:59;;;;;;;5.38;2.70;;;23.00;92.30;;;;;;5035011;28;20663;-74
2022/06/24 05:48:25;;;;;;;3.97;2.92;;;23.00;92.20;;;;;;5033171;28;20191;-75
2022/06/24 05:50:51;;;;;;;3.55;2.95;;;23.00;91.90;;;;;;5034616;28;20184;-72
2022/06/24 05:56:00;;;;;;;5.55;3.00;;;23.20;91.60;;;;;;5036329;28;20195;-73
2022/06/24 05:58:30;;;;;;;4.30;3.08;;;23.20;91.30;;;;;;5036408;28;20169;-71
2022/06/24 06:00:56;;;;;;;5.07;3.35;;;23.20;91.30;;;;;;5035648;28;20172;-74
2022/06/24 06:03:26;;;;;;;5.78;3.50;;;23.20;90.80;;;;;;5036480;28;20230;-73
2022/06/24 06:05:52;;;;;;;6.13;3.60;;;23.30;90.70;;;;;;5036650;28;20219;-73
2022/06/24 06:08:18;;;;;;;4.20;2.85;;;23.50;91.00;;;;;;5036177;28;20177;-74
2022/06/24 06:10:44;;;;;;;3.83;2.75;;;23.70;90.30;;;;;;5036916;28;20678;-74
2022/06/24 06:13:13;;;;;;;9.13;3.38;;;23.60;90.10;;;;;;5036996;28;20177;-72
2022/06/24 06:15:40;;;;;;;12.10;3.95;;;23.70;88.50;;;;;;5037869;28;20191;-72
2022/06/24 06:18:06;;;;;;;4.25;2.88;;;23.70;89.10;;;;;;5041861;28;20216;-72
2022/06/24 06:20:32;;;;;;;3.50;3.10;;;23.70;87.10;;;;;;5038848;28;20180;-72
2022/06/24 06:22:57;;;;;;;5.63;3.40;;;23.80;88.00;;;;;;5037875;28;20177;-74
2022/06/24 06:25:24;;;;;;;4.80;3.53;;;23.90;87.50;;;;;;5037153;28;20698;-73
2022/06/24 06:27:50;;;;;;;3.90;3.28;;;24.00;86.30;;;;;;5039429;28;20296;-72
2022/06/24 06:30:16;;;;;;;6.53;3.20;;;24.00;85.60;;;;;;5036987;28;20608;-72
2022/06/24 06:32:41;;;;;;;6.72;3.33;;;24.10;84.90;;;;;;5035679;28;20243;-72
2022/06/24 06:35:07;;;;;;;6.60;2.72;;;24.30;86.00;;;;;;5037184;28;20172;-73
2022/06/24 06:37:34;;;;;;;10.38;3.38;;;24.30;84.50;;;;;;5035587;28;20180;-74
2022/06/24 06:40:00;;;;;;;5.78;2.97;;;24.40;84.80;;;;;;5035154;28;20534;-74
2022/06/24 06:42:25;;;;;;;3.78;2.90;;;24.60;83.60;;;;;;5035922;28;20184;-74
2022/06/24 06:44:51;;;;;;;6.20;3.00;;;24.80;83.10;;;;;;5036040;28;20173;-73
2022/06/24 06:47:16;;;;;;;3.75;3.10;;;24.80;82.10;;;;;;5034480;28;20191;-75
2022/06/24 06:49:42;;;;;;;7.53;3.20;;;25.00;82.80;;;;;;5034931;28;20315;-73
2022/06/24 06:52:07;;;;;;;5.82;3.25;;;25.00;80.40;;;;;;5034644;28;20207;-77
2022/06/24 06:54:33;;;;;;;3.90;2.83;;;25.10;80.10;;;;;;5034774;28;20177;-73
2022/06/24 06:56:59;;;;;;;6.30;2.60;;;25.00;78.80;;;;;;5033647;28;20180;-74
2022/06/24 06:59:25;;;;;;;3.55;2.88;;;25.00;78.50;;;;;;5034999;28;20204;-76
2022/06/24 07:01:52;;;;;;;6.03;3.03;;;25.10;78.20;;;;;;5039586;28;20191;-73
2022/06/24 07:04:17;;;;;;;3.67;3.10;;;25.10;77.70;;;;;;5041793;28;20185;-76
2022/06/24 07:06:43;;;;;;;3.00;2.70;;;25.30;77.00;;;;;;5024690;28;20274;-75
2022/06/24 07:09:08;;;;;;;4.07;3.00;;;25.40;76.90;;;;;;5045714;28;20184;-75
2022/06/24 07:11:34;;;;;;;5.10;2.85;;;25.40;77.40;;;;;;5038579;28;20184;-73
2022/06/24 07:13:59;;;;;;;3.20;2.90;;;25.80;76.40;;;;;;5038150;28;20650;-73
2022/06/24 07:16:26;;;;;;;2.80;2.60;;;25.80;74.00;;;;;;5036989;28;20188;-74
2022/06/24 07:18:51;;;;;;;4.20;2.70;;;25.90;74.80;;;;;;5037984;28;20188;-75
2022/06/24 07:21:17;;;;;;;4.25;2.78;;;25.90;72.80;;;;;;5038323;28;20499;-76
2022/06/24 07:23:42;;;;;;;2.80;2.60;;;25.90;73.20;;;;;;5037691;28;20233;-77
2022/06/24 07:26:08;;;;;;;3.50;3.05;;;26.00;72.70;;;;;;5038146;28;20215;-75
2022/06/24 07:28:34;;;;;;;3.97;3.17;;;26.00;72.50;;;;;;5038094;28;20529;-76
2022/06/24 07:31:00;;;;;;;4.40;3.05;;;26.30;72.10;;;;;;5037926;28;20181;-76
2022/06/24 07:33:25;;;;;;;4.88;3.03;;;26.10;71.00;;;;;;5037099;28;20189;-75
2022/06/24 07:35:51;;;;;;;3.95;3.00;;;26.20;70.30;;;;;;5038356;28;20173;-75
2022/06/24 07:38:17;;;;;;;4.03;2.70;;;26.20;70.80;;;;;;5038219;28;20191;-75
2022/06/24 07:40:43;;;;;;;3.88;2.78;;;26.30;70.50;;;;;;5037822;28;20227;-78
2022/06/24 07:43:08;;;;;;;4.45;3.03;;;26.40;70.10;;;;;;5037392;28;20175;-75
2022/06/24 07:45:34;;;;;;;3.45;2.58;;;26.60;69.70;;;;;;5037452;28;20608;-73
2022/06/24 07:47:59;;;;;;;7.20;3.10;;;26.40;68.50;;;;;;5019490;28;20177;-75
2022/06/24 07:50:25;;;;;;;7.90;3.08;;;26.50;68.60;;;;;;5036108;28;20235;-75
2022/06/24 07:52:51;;;;;;;4.40;3.05;;;26.60;68.50;;;;;;5036223;28;20185;-74
2022/06/24 07:58:02;;;;;;;3.58;2.88;;;26.80;67.50;;;;;;5035889;28;20191;-75
2022/06/24 08:00:28;;;;;;;5.90;2.50;;;27.00;66.40;;;;;;5018256;28;20196;-76
2022/06/24 08:02:53;;;;;;;8.13;2.67;;;27.00;65.40;;;;;;5035507;28;20200;-76
2022/06/24 08:05:19;;;;;;;6.70;2.85;;;26.90;66.40;;;;;;5035170;28;20243;-76
2022/06/24 08:07:44;;;;;;;6.50;3.20;;;27.20;65.40;;;;;;5035254;28;20194;-76
2022/06/24 08:10:10;;;;;;;3.38;2.60;;;27.40;64.40;;;;;;5035244;28;20173;-75
2022/06/24 08:12:36;;;;;;;3.35;2.50;;;27.30;63.70;;;;;;5034681;28;20214;-75
2022/06/24 08:15:02;;;;;;;3.20;2.40;;;27.40;63.50;;;;;;5035757;28;20184;-75
2022/06/24 08:17:27;;;;;;;6.47;2.80;;;27.40;63.10;;;;;;5035432;28;20172;-74
2022/06/24 08:19:53;;;;;;;2.70;2.50;;;27.50;61.90;;;;;;5036108;28;20184;-74
2022/06/24 08:22:20;;;;;;;4.93;2.75;;;27.60;62.30;;;;;;5036908;28;20655;-75
2022/06/24 08:24:46;;;;;;;3.78;2.90;;;27.90;61.10;;;;;;5037352;28;20177;-75
2022/06/24 08:27:12;;;;;;;3.92;2.92;;;28.00;61.20;;;;;;5036597;28;20200;-77
2022/06/24 08:29:38;;;;;;;6.03;2.97;;;28.10;60.30;;;;;;5038020;28;20228;-77
2022/06/24 08:32:04;;;;;;;4.60;3.17;;;28.00;59.60;;;;;;5036316;28;20573;-74
2022/06/24 08:34:29;;;;;;;4.75;2.65;;;28.20;59.50;;;;;;5036282;28;20184;-74
2022/06/24 08:36:55;;;;;;;3.97;3.58;;;28.30;59.10;;;;;;5036149;28;20181;-75
2022/06/24 08:39:20;;;;;;;3.05;2.25;;;28.40;58.80;;;;;;5035988;28;20200;-75
2022/06/24 08:41:48;;;;;;;3.95;2.80;;;28.50;57.30;;;;;;5035246;28;20293;-75
2022/06/24 08:44:13;;;;;;;3.67;2.40;;;28.50;56.40;;;;;;5035846;28;20185;-73
2022/06/24 08:46:39;;;;;;;4.28;2.40;;;28.50;56.20;;;;;;5036658;28;20225;-74
2022/06/24 08:49:06;;;;;;;4.38;2.60;;;28.30;56.50;;;;;;5035696;28;20177;-76
2022/06/24 08:51:34;;;;;;;4.03;2.67;;;28.60;57.20;;;;;;5035363;28;20184;-77
2022/06/24 08:54:02;;;;;;;4.13;2.70;;;28.80;56.10;;;;;;5035160;28;20209;-74
2022/06/24 08:56:28;;;;;;;3.45;2.47;;;28.80;55.60;;;;;;5035593;28;20183;-74
2022/06/24 08:58:54;;;;;;;4.10;2.72;;;28.70;56.10;;;;;;5034980;28;20187;-74
2022/06/24 09:01:20;;;;;;;3.00;2.40;;;28.90;56.10;;;;;;5035841;28;20177;-74
2022/06/24 09:03:47;;;;;;;2.58;2.28;;;29.00;55.50;;;;;;5037045;28;20255;-77
2022/06/24 09:06:14;;;;;;;6.95;2.42;;;29.20;55.20;;;;;;5037201;28;20695;-76
2022/06/24 09:08:44;;;;;;;2.55;2.22;;;29.20;55.00;;;;;;5035647;28;20561;-74
2022/06/24 09:11:11;;;;;;;3.20;2.90;;;29.20;54.40;;;;;;5035512;28;20567;-75
2022/06/24 09:13:55;;;;;;;2.67;2.38;;;29.10;55.50;;;;;;5035976;28;20263;-77
2022/06/24 09:16:24;;;;;;;3.80;2.58;;;29.30;55.00;;;;;;5036140;28;20183;-76
2022/06/24 09:18:52;;;;;;;4.57;2.72;;;29.30;54.40;;;;;;5039735;28;20183;-75
2022/06/24 09:21:23;;;;;;;2.80;2.60;;;29.70;54.70;;;;;;5043545;28;20177;-76
2022/06/24 09:23:54;;;;;;;6.85;2.88;;;29.70;53.20;;;;;;5042898;28;20180;-75
2022/06/24 09:26:31;;;;;;;2.92;2.45;;;29.70;52.70;;;;;;5046815;28;20227;-76
2022/06/24 09:28:57;;;;;;;5.03;2.42;;;29.80;53.30;;;;;;5042721;28;20232;-75
2022/06/24 09:31:27;;;;;;;2.88;2.45;;;29.80;52.50;;;;;;5043906;28;20208;-75
2022/06/24 09:33:53;;;;;;;4.57;2.53;;;29.90;53.30;;;;;;5038489;28;20184;-76
2022/06/24 09:36:24;;;;;;;3.42;2.42;;;30.20;52.40;;;;;;5040144;28;20180;-76
2022/06/24 09:39:03;;;;;;;3.17;2.45;;;30.00;51.90;;;;;;5038180;28;20191;-76
2022/06/24 09:41:29;;;;;;;3.25;2.60;;;30.00;52.30;;;;;;5037213;28;20201;-76
2022/06/24 09:43:59;;;;;;;5.43;2.40;;;30.20;52.40;;;;;;5036720;28;20263;-76
2022/06/24 09:46:25;;;;;;;2.50;2.30;;;30.00;52.00;;;;;;5036095;28;20266;-77
2022/06/24 09:49:00;;;;;;;2.85;2.20;;;30.00;51.80;;;;;;5037679;28;20180;-76
2022/06/24 09:51:27;;;;;;;3.83;2.30;;;29.90;52.30;;;;;;5038061;28;20183;-76
2022/06/24 09:53:54;;;;;;;6.43;2.30;;;30.40;52.50;;;;;;5017236;28;20357;-77
2022/06/24 09:56:20;;;;;;;4.25;2.50;;;30.40;51.30;;;;;;5036433;28;20184;-78
2022/06/24 10:00:40;;;;;;;5.72;2.40;;;30.30;51.60;;;;;;5035512;28;20176;-74
2022/06/24 10:01:35;;;;;;;5.95;2.30;;;29.90;51.70;;;;;;5035708;28;20208;-79
2022/06/24 10:04:03;;;;;;;3.17;2.55;;;29.80;51.60;;;;;;5035993;28;20181;-76
2022/06/24 10:06:35;;;;;;;4.55;2.55;;;29.70;52.10;;;;;;5035847;28;20230;-75
2022/06/24 10:09:04;;;;;;;3.38;2.80;;;29.90;52.00;;;;;;5035410;28;20513;-76
2022/06/24 10:11:33;;;;;;;2.40;2.20;;;29.50;52.50;;;;;;5035876;28;20181;-76
2022/06/24 10:14:00;;;;;;;5.35;2.60;;;29.60;53.20;;;;;;5034859;28;20181;-72
2022/06/24 10:16:26;;;;;;;3.45;2.90;;;29.50;53.80;;;;;;5034150;28;20211;-75
2022/06/24 10:18:52;;;;;;;3.22;2.90;;;29.50;53.40;;;;;;5033857;28;20516;-73
2022/06/24 10:21:18;;;;;;;3.53;3.00;;;29.70;54.20;;;;;;5033692;28;20191;-72
2022/06/24 10:23:49;;;;;;;3.28;2.72;;;30.10;53.80;;;;;;5034440;28;20181;-74
2022/06/24 10:26:34;;;;;;;4.15;2.67;;;30.10;53.20;;;;;;5034167;28;20220;-75
2022/06/24 10:29:00;;;;;;;4.63;2.50;;;30.00;53.20;;;;;;5034912;28;20319;-74
2022/06/24 10:31:37;;;;;;;4.35;2.65;;;29.60;52.60;;;;;;5035732;28;20274;-74
2022/06/24 10:34:03;;;;;;;5.20;2.20;;;29.50;53.80;;;;;;5037513;28;20180;-74
2022/06/24 10:36:31;;;;;;;3.85;2.88;;;29.60;53.90;;;;;;5042050;28;20208;-74
2022/06/24 10:39:12;;;;;;;7.78;6.00;;;29.80;54.40;;;;;;5043139;28;20263;-75
2022/06/24 10:41:39;;;;;;;3.10;2.60;;;29.80;54.80;;;;;;5042982;28;20192;-76
2022/06/24 10:44:33;;;;;;;2.80;2.58;;;29.90;54.00;;;;;;5042012;28;20183;-77
2022/06/24 10:47:04;;;;;;;3.88;3.30;;;29.80;54.70;;;;;;5023089;28;20261;-75
2022/06/24 10:49:55;;;;;;;6.68;3.00;;;29.60;54.60;;;;;;5043160;28;20176;-75
2022/06/24 10:52:47;;;;;;;3.85;2.78;;;29.70;55.40;;;;;;5042550;28;20180;-78
2022/06/24 10:55:20;;;;;;;9.27;2.75;;;29.60;55.10;;;;;;5041706;28;20272;-74
2022/06/24 10:57:57;;;;;;;2.97;2.42;;;29.90;55.40;;;;;;5042222;28;20596;-75
2022/06/24 11:00:25;;;;;;;7.72;3.55;;;29.90;54.80;;;;;;5042227;28;20187;-78
2022/06/24 11:02:55;;;;;;;4.72;3.63;;;29.80;55.80;;;;;;5042577;28;20192;-75
2022/06/24 11:05:40;;;;;;;7.53;5.18;;;29.80;56.00;;;;;;5045387;28;20208;-76
2022/06/24 11:08:17;;;;;;;5.85;3.30;;;29.90;56.40;;;;;;5044704;28;20186;-77
2022/06/24 11:10:44;;;;;;;3.33;2.70;;;29.80;56.20;;;;;;5041764;28;20184;-74
2022/06/24 11:13:10;;;;;;;3.15;2.85;;;29.70;56.80;;;;;;5042451;28;20562;-75
2022/06/24 11:15:50;;;;;;;7.53;3.38;;;29.80;57.70;;;;;;5024554;28;20187;-76
2022/06/24 11:18:24;;;;;;;3.22;2.92;;;29.60;57.90;;;;;;5041244;28;20538;-75
2022/06/24 11:20:56;;;;;;;9.30;5.90;;;29.50;57.80;;;;;;5041191;28;20182;-73
2022/06/24 11:23:24;;;;;;;3.80;3.45;;;29.30;57.70;;;;;;5042137;28;20172;-75
2022/06/24 11:26:02;;;;;;;7.10;4.38;;;29.10;58.30;;;;;;5041369;28;20224;-76
2022/06/24 11:28:28;;;;;;;5.43;3.20;;;29.00;58.50;;;;;;5041942;28;20239;-75
2022/06/24 11:30:56;;;;;;;4.05;3.65;;;28.90;59.10;;;;;;5023300;28;20608;-74
2022/06/24 11:33:23;;;;;;;4.50;3.38;;;28.90;60.50;;;;;;5041586;28;20184;-76
2022/06/24 11:35:49;;;;;;;3.22;2.88;;;28.80;60.90;;;;;;5045305;28;20176;-74
2022/06/24 11:38:15;;;;;;;4.35;3.22;;;28.80;59.90;;;;;;5045035;28;20184;-73
2022/06/24 11:40:42;;;;;;;4.78;3.33;;;28.50;59.80;;;;;;5042469;28;20173;-73
2022/06/24 11:43:13;;;;;;;4.03;3.03;;;28.70;61.50;;;;;;5042999;28;20185;-75
2022/06/24 11:45:43;;;;;;;7.75;3.95;;;28.70;61.20;;;;;;5040251;28;20228;-74
2022/06/24 11:48:12;;;;;;;11.73;7.95;;;28.70;62.20;;;;;;5038161;28;20176;-75
2022/06/24 11:50:40;;;;;;;5.43;4.00;;;28.80;62.60;;;;;;5038520;28;20187;-76
2022/06/24 11:53:07;;;;;;;6.07;3.70;;;28.80;62.30;;;;;;5041455;28;20177;-75
2022/06/24 11:55:38;;;;;;;4.65;3.17;;;29.00;62.00;;;;;;5040103;28;20185;-75
2022/06/24 11:58:05;;;;;;;5.00;3.97;;;29.00;62.60;;;;;;5039557;28;20181;-74
2022/06/24 12:00:34;;;;;;;8.25;3.95;;;29.20;62.80;;;;;;5038545;28;20632;-77
2022/06/24 12:03:01;;;;;;;7.90;3.65;;;29.60;61.60;;;;;;5038667;28;20658;-74
2022/06/24 12:05:30;;;;;;;4.18;3.75;;;30.30;59.70;;;;;;5038288;28;20231;-77
2022/06/24 12:07:57;;;;;;;5.47;3.38;;;30.40;59.80;;;;;;5038404;28;20181;-76
2022/06/24 12:10:22;;;;;;;5.43;3.65;;;30.40;58.80;;;;;;5037484;28;20632;-75
2022/06/24 12:13:05;;;;;;;7.20;3.35;;;30.80;58.90;;;;;;5037876;28;20268;-77
2022/06/24 12:15:37;;;;;;;3.92;3.53;;;30.90;58.40;;;;;;5037812;28;20204;-77
2022/06/24 12:18:21;;;;;;;3.72;3.20;;;31.00;57.60;;;;;;5038654;28;20191;-76
2022/06/24 12:20:59;;;;;;;11.75;3.40;;;30.90;57.20;;;;;;5037496;28;20177;-76
2022/06/24 12:23:31;;;;;;;7.28;3.67;;;30.60;58.00;;;;;;5037405;28;20181;-77
2022/06/24 12:25:57;;;;;;;4.03;3.38;;;30.50;58.20;;;;;;5037251;28;20223;-76
2022/06/24 12:28:24;;;;;;;5.60;3.60;;;30.40;57.70;;;;;;5037718;28;20228;-76
2022/06/24 12:31:04;;;;;;;4.55;3.33;;;30.60;58.30;;;;;;5037372;28;20263;-77
2022/06/24 12:33:35;;;;;;;4.55;3.30;;;30.50;56.40;;;;;;5037346;28;20187;-75
2022/06/24 12:36:10;;;;;;;4.20;3.70;;;30.10;57.40;;;;;;5037201;28;20195;-76
2022/06/24 12:38:37;;;;;;;4.72;3.15;;;30.10;58.00;;;;;;5037455;28;20273;-75
2022/06/24 12:41:10;;;;;;;6.47;3.90;;;30.20;58.80;;;;;;5037050;28;20185;-75
2022/06/24 12:43:36;;;;;;;4.63;3.15;;;30.10;59.00;;;;;;5036611;28;20176;-75
2022/06/24 12:46:05;;;;;;;7.35;4.50;;;29.90;58.70;;;;;;5039047;28;20223;-75
2022/06/24 12:51:22;;;;;;;4.00;3.60;;;29.70;59.30;;;;;;5037481;28;20180;-74
2022/06/24 12:53:52;;;;;;;7.13;3.70;;;29.60;59.80;;;;;;5036931;28;20207;-74
2022/06/24 12:56:19;;;;;;;6.63;3.15;;;29.30;60.40;;;;;;5038025;28;20705;-75
2022/06/24 12:58:45;;;;;;;4.95;3.10;;;29.10;61.50;;;;;;5038984;28;20211;-76
2022/06/24 13:01:11;;;;;;;5.03;3.28;;;29.00;62.70;;;;;;5036962;28;20583;-77